createdAt,value
2018-03-29T00:00:03.375Z,992.52
2018-03-29T00:01:03.393Z,992.51
2018-03-29T00:02:03.403Z,992.49
2018-03-29T00:03:03.416Z,992.48
2018-03-29T00:04:03.432Z,992.45
2018-03-29T00:05:03.449Z,992.46
2018-03-29T00:07:03.474Z,992.39
2018-03-29T00:08:03.488Z,992.33
2018-03-29T00:09:03.503Z,992.35
2018-03-29T00:10:03.516Z,992.33
2018-03-29T00:11:03.531Z,992.31
2018-03-29T00:12:03.546Z,992.31
2018-03-29T00:13:03.560Z,992.27
2018-03-29T00:14:03.574Z,992.19
2018-03-29T00:15:03.589Z,992.17
2018-03-29T00:16:03.603Z,992.14
2018-03-29T00:17:03.617Z,992.12
2018-03-29T00:18:03.632Z,992.14
2018-03-29T00:19:03.646Z,992.19
2018-03-29T00:20:03.662Z,992.14
2018-03-29T00:21:03.674Z,992.14
2018-03-29T00:23:03.704Z,992.08
2018-03-29T00:24:03.721Z,992.04
2018-03-29T00:25:03.732Z,992.04
2018-03-29T00:26:03.746Z,992.07
2018-03-29T00:27:03.765Z,992.06
2018-03-29T00:28:03.775Z,991.98
2018-03-29T00:29:03.790Z,991.91
2018-03-29T00:30:03.805Z,991.96
2018-03-29T00:31:03.820Z,991.96
2018-03-29T00:32:03.834Z,991.92
2018-03-29T00:33:03.850Z,991.91
2018-03-29T00:34:03.863Z,991.9
2018-03-29T00:35:03.881Z,991.89
2018-03-29T00:36:03.893Z,991.9
2018-03-29T00:38:03.923Z,991.86
2018-03-29T00:39:03.935Z,991.83
2018-03-29T00:40:03.951Z,991.83
2018-03-29T00:41:03.970Z,991.81
2018-03-29T00:42:03.979Z,991.85
2018-03-29T00:43:03.994Z,991.84
2018-03-29T00:44:04.009Z,991.85
2018-03-29T00:45:04.027Z,991.86
2018-03-29T00:46:04.042Z,991.82
2018-03-29T00:47:04.052Z,991.85
2018-03-29T00:48:04.067Z,991.86
2018-03-29T00:49:04.082Z,991.75
2018-03-29T00:50:04.095Z,991.81
2018-03-29T00:51:04.111Z,991.81
2018-03-29T00:52:04.125Z,991.74
2018-03-29T00:53:04.140Z,991.74
2018-03-29T00:54:04.153Z,991.75
2018-03-29T00:55:04.168Z,991.73
2018-03-29T00:56:04.183Z,991.71
2018-03-29T00:57:04.196Z,991.71
2018-03-29T00:58:04.212Z,991.71
2018-03-29T00:59:04.226Z,991.69
2018-03-29T01:00:04.241Z,991.61
2018-03-29T01:01:04.254Z,991.6
2018-03-29T01:02:04.273Z,991.64
2018-03-29T01:03:04.285Z,991.66
2018-03-29T01:04:04.300Z,991.61
2018-03-29T01:05:04.312Z,991.62
2018-03-29T01:06:04.331Z,991.57
2018-03-29T01:07:04.342Z,991.58
2018-03-29T01:08:04.356Z,991.56
2018-03-29T01:10:04.385Z,991.56
2018-03-29T01:11:04.400Z,991.55
2018-03-29T01:12:04.415Z,991.53
2018-03-29T01:13:04.430Z,991.58
2018-03-29T01:14:04.444Z,991.53
2018-03-29T01:15:04.459Z,991.49
2018-03-29T01:16:04.473Z,991.54
2018-03-29T01:17:04.487Z,991.56
2018-03-29T01:18:04.502Z,991.55
2018-03-29T01:19:04.516Z,991.51
2018-03-29T01:20:04.530Z,991.53
2018-03-29T01:21:04.548Z,991.55
2018-03-29T01:22:04.560Z,991.51
2018-03-29T01:23:04.575Z,991.54
2018-03-29T01:24:04.588Z,991.47
2018-03-29T01:26:04.618Z,991.48
2018-03-29T01:27:04.638Z,991.44
2018-03-29T01:28:04.646Z,991.46
2018-03-29T01:29:04.661Z,991.36
2018-03-29T01:30:04.676Z,991.38
2018-03-29T01:31:04.694Z,991.39
2018-03-29T01:32:04.705Z,991.32
2018-03-29T01:33:04.720Z,991.34
2018-03-29T01:34:04.734Z,991.32
2018-03-29T01:35:04.750Z,991.34
2018-03-29T01:36:04.763Z,991.3
2018-03-29T01:37:04.780Z,991.32
2018-03-29T01:38:04.792Z,991.3
2018-03-29T01:39:04.807Z,991.36
2018-03-29T01:40:04.823Z,991.36
2018-03-29T01:42:04.849Z,991.42
2018-03-29T01:43:04.864Z,991.43
2018-03-29T01:44:04.880Z,991.4
2018-03-29T01:45:04.893Z,991.46
2018-03-29T01:46:04.908Z,991.45
2018-03-29T01:47:04.923Z,991.43
2018-03-29T01:48:04.938Z,991.38
2018-03-29T01:49:04.952Z,991.37
2018-03-29T01:50:04.967Z,991.39
2018-03-29T01:51:04.982Z,991.46
2018-03-29T01:52:04.996Z,991.41
2018-03-29T01:53:05.011Z,991.44
2018-03-29T01:54:05.025Z,991.48
2018-03-29T01:55:05.041Z,991.51
2018-03-29T01:56:05.055Z,991.44
2018-03-29T01:58:05.085Z,991.42
2018-03-29T01:59:05.100Z,991.33
2018-03-29T02:00:05.118Z,991.34
2018-03-29T02:01:05.131Z,991.32
2018-03-29T02:02:05.144Z,991.35
2018-03-29T02:03:05.157Z,991.28
2018-03-29T02:04:05.172Z,991.3
2018-03-29T02:05:05.186Z,991.31
2018-03-29T02:06:05.206Z,991.3
2018-03-29T02:07:05.216Z,991.29
2018-03-29T02:08:05.231Z,991.28
2018-03-29T02:09:05.246Z,991.29
2018-03-29T02:10:05.267Z,991.33
2018-03-29T02:11:05.279Z,991.34
2018-03-29T02:13:05.306Z,991.34
2018-03-29T02:14:05.324Z,991.32
2018-03-29T02:15:05.338Z,991.34
2018-03-29T02:16:05.350Z,991.31
2018-03-29T02:17:05.369Z,991.34
2018-03-29T02:18:05.379Z,991.35
2018-03-29T02:19:05.393Z,991.28
2018-03-29T02:20:05.409Z,991.26
2018-03-29T02:21:05.427Z,991.29
2018-03-29T02:22:05.438Z,991.32
2018-03-29T02:23:05.453Z,991.34
2018-03-29T02:24:05.468Z,991.33
2018-03-29T02:25:05.482Z,991.35
2018-03-29T02:26:05.497Z,991.45
2018-03-29T02:27:05.546Z,991.45
2018-03-29T02:28:05.527Z,991.45
2018-03-29T02:29:05.542Z,991.55
2018-03-29T02:30:05.558Z,991.56
2018-03-29T02:31:05.572Z,991.61
2018-03-29T02:32:05.587Z,991.63
2018-03-29T02:33:05.602Z,991.67
2018-03-29T02:34:05.617Z,991.65
2018-03-29T02:35:05.634Z,991.63
2018-03-29T02:36:05.646Z,991.65
2018-03-29T02:37:05.668Z,991.7
2018-03-29T02:38:05.677Z,991.77
2018-03-29T02:39:05.692Z,991.72
2018-03-29T02:40:05.711Z,991.69
2018-03-29T02:41:05.721Z,991.79
2018-03-29T02:42:05.738Z,991.82
2018-03-29T02:43:05.751Z,991.78
2018-03-29T02:45:05.781Z,991.68
2018-03-29T02:46:05.798Z,991.67
2018-03-29T02:47:05.810Z,991.66
2018-03-29T02:48:05.828Z,991.7
2018-03-29T02:49:05.840Z,991.69
2018-03-29T02:50:05.857Z,991.69
2018-03-29T02:51:05.870Z,991.64
2018-03-29T02:52:05.885Z,991.66
2018-03-29T02:53:05.901Z,991.69
2018-03-29T02:54:05.915Z,991.64
2018-03-29T02:55:05.931Z,991.56
2018-03-29T02:56:05.957Z,991.67
2018-03-29T02:57:05.961Z,991.68
2018-03-29T02:58:05.980Z,991.7
2018-03-29T02:59:05.997Z,991.71
2018-03-29T03:01:06.021Z,991.68
2018-03-29T03:02:06.037Z,991.64
2018-03-29T03:03:06.054Z,991.68
2018-03-29T03:04:06.068Z,991.67
2018-03-29T03:05:06.082Z,991.72
2018-03-29T03:06:06.100Z,991.74
2018-03-29T03:07:06.113Z,991.82
2018-03-29T03:08:06.128Z,991.74
2018-03-29T03:09:06.141Z,991.77
2018-03-29T03:10:06.258Z,991.79
2018-03-29T03:11:06.172Z,991.81
2018-03-29T03:12:06.188Z,991.79
2018-03-29T03:13:06.203Z,991.8
2018-03-29T03:14:06.220Z,991.85
2018-03-29T03:15:06.234Z,991.83
2018-03-29T03:17:06.264Z,991.86
2018-03-29T03:18:06.280Z,991.81
2018-03-29T03:19:06.296Z,991.88
2018-03-29T03:20:06.310Z,991.88
2018-03-29T03:21:06.325Z,991.9
2018-03-29T03:22:06.341Z,991.89
2018-03-29T03:23:06.356Z,991.94
2018-03-29T03:24:06.375Z,991.97
2018-03-29T03:25:06.390Z,991.95
2018-03-29T03:26:06.402Z,992.01
2018-03-29T03:27:06.417Z,992.05
2018-03-29T03:28:06.433Z,992.05
2018-03-29T03:29:06.447Z,992.08
2018-03-29T03:30:06.465Z,992.16
2018-03-29T03:31:06.480Z,992.12
2018-03-29T03:33:06.510Z,992.1
2018-03-29T03:34:06.526Z,992.18
2018-03-29T03:35:06.540Z,992.12
2018-03-29T03:36:06.556Z,992.18
2018-03-29T03:37:06.622Z,992.21
2018-03-29T03:38:06.586Z,992.25
2018-03-29T03:39:06.602Z,992.24
2018-03-29T03:40:06.618Z,992.26
2018-03-29T03:41:06.634Z,992.25
2018-03-29T03:42:06.649Z,992.28
2018-03-29T03:43:06.669Z,992.25
2018-03-29T03:44:06.683Z,992.27
2018-03-29T03:45:06.696Z,992.29
2018-03-29T03:46:06.712Z,992.35
2018-03-29T03:48:06.747Z,992.34
2018-03-29T03:49:06.758Z,992.37
2018-03-29T03:50:06.773Z,992.38
2018-03-29T03:51:06.790Z,992.38
2018-03-29T03:52:06.806Z,992.42
2018-03-29T03:53:06.821Z,992.39
2018-03-29T03:54:06.836Z,992.38
2018-03-29T03:55:06.852Z,992.47
2018-03-29T03:56:06.867Z,992.42
2018-03-29T03:57:06.882Z,992.48
2018-03-29T03:58:06.899Z,992.45
2018-03-29T03:59:06.914Z,992.5
2018-03-29T04:00:06.929Z,992.46
2018-03-29T04:01:06.947Z,992.54
2018-03-29T04:02:06.961Z,992.5
2018-03-29T04:03:06.977Z,992.51
2018-03-29T04:04:06.993Z,992.57
2018-03-29T04:05:07.008Z,992.53
2018-03-29T04:06:07.025Z,992.57
2018-03-29T04:07:07.039Z,992.53
2018-03-29T04:08:07.055Z,992.71
2018-03-29T04:09:07.071Z,992.69
2018-03-29T04:10:07.088Z,992.63
2018-03-29T04:11:07.102Z,992.63
2018-03-29T04:12:07.118Z,992.63
2018-03-29T04:13:07.134Z,992.62
2018-03-29T04:14:07.186Z,992.56
2018-03-29T04:15:07.165Z,992.61
2018-03-29T04:16:07.180Z,992.6
2018-03-29T04:17:07.197Z,992.64
2018-03-29T04:18:07.212Z,992.63
2018-03-29T04:20:07.245Z,992.68
2018-03-29T04:21:07.260Z,992.76
2018-03-29T04:22:07.275Z,992.7
2018-03-29T04:23:07.297Z,992.85
2018-03-29T04:24:07.307Z,992.81
2018-03-29T04:25:07.322Z,992.79
2018-03-29T04:26:07.339Z,992.91
2018-03-29T04:27:07.355Z,992.93
2018-03-29T04:28:07.371Z,993.01
2018-03-29T04:29:07.385Z,992.67
2018-03-29T04:30:07.401Z,992.92
2018-03-29T04:31:07.421Z,992.9
2018-03-29T04:32:07.433Z,992.87
2018-03-29T04:33:07.448Z,992.99
2018-03-29T04:34:07.464Z,992.97
2018-03-29T04:36:07.497Z,992.9
2018-03-29T04:37:07.511Z,993.08
2018-03-29T04:38:07.527Z,993
2018-03-29T04:39:07.543Z,993.08
2018-03-29T04:40:07.558Z,993.26
2018-03-29T04:41:07.574Z,993.23
2018-03-29T04:42:07.590Z,993.15
2018-03-29T04:43:07.606Z,993.29
2018-03-29T04:44:07.622Z,993.18
2018-03-29T04:45:07.638Z,993.22
2018-03-29T04:46:07.654Z,993.25
2018-03-29T04:47:07.669Z,993.27
2018-03-29T04:48:07.685Z,993.4
2018-03-29T04:49:07.702Z,993.45
2018-03-29T04:50:07.716Z,993.34
2018-03-29T04:52:07.747Z,993.43
2018-03-29T04:53:07.763Z,993.46
2018-03-29T04:54:07.779Z,993.48
2018-03-29T04:55:07.794Z,993.57
2018-03-29T04:56:07.810Z,993.58
2018-03-29T04:57:07.825Z,993.51
2018-03-29T04:58:07.842Z,993.64
2018-03-29T04:59:07.860Z,993.58
2018-03-29T05:00:07.873Z,993.69
2018-03-29T05:01:07.889Z,993.68
2018-03-29T05:02:07.905Z,993.5
2018-03-29T05:03:07.921Z,993.75
2018-03-29T05:04:07.938Z,993.71
2018-03-29T05:05:07.953Z,993.76
2018-03-29T05:06:07.967Z,993.91
2018-03-29T05:08:08.002Z,993.86
2018-03-29T05:09:08.015Z,993.83
2018-03-29T05:10:08.031Z,993.94
2018-03-29T05:11:08.046Z,993.98
2018-03-29T05:12:08.064Z,993.82
2018-03-29T05:13:08.080Z,993.77
2018-03-29T05:14:08.093Z,993.93
2018-03-29T05:15:08.109Z,993.82
2018-03-29T05:16:08.125Z,993.86
2018-03-29T05:17:08.241Z,994.04
2018-03-29T05:18:08.158Z,993.93
2018-03-29T05:19:08.178Z,993.99
2018-03-29T05:20:08.188Z,994.05
2018-03-29T05:21:08.206Z,994.02
2018-03-29T05:23:08.236Z,994.11
2018-03-29T05:24:08.251Z,994.04
2018-03-29T05:25:08.268Z,994.09
2018-03-29T05:26:08.284Z,994.08
2018-03-29T05:27:08.299Z,994.12
2018-03-29T05:28:08.315Z,994.04
2018-03-29T05:29:08.331Z,994.21
2018-03-29T05:30:08.346Z,994.28
2018-03-29T05:31:08.362Z,994.17
2018-03-29T05:32:08.377Z,994.2
2018-03-29T05:33:08.394Z,994.25
2018-03-29T05:34:08.410Z,994.32
2018-03-29T05:35:08.425Z,994.24
2018-03-29T05:36:08.441Z,994.34
2018-03-29T05:37:08.457Z,994.37
2018-03-29T05:38:08.473Z,994.33
2018-03-29T05:39:08.490Z,994.32
2018-03-29T05:40:08.534Z,994.39
2018-03-29T05:41:08.520Z,994.45
2018-03-29T05:42:08.535Z,994.66
2018-03-29T05:43:08.552Z,994.46
2018-03-29T05:44:08.568Z,994.41
2018-03-29T05:45:08.623Z,994.35
2018-03-29T05:46:08.599Z,994.48
2018-03-29T05:47:08.617Z,994.46
2018-03-29T05:48:08.632Z,994.56
2018-03-29T05:49:08.647Z,994.49
2018-03-29T05:50:08.663Z,994.52
2018-03-29T05:51:08.679Z,994.58
2018-03-29T05:52:08.695Z,994.6
2018-03-29T05:53:08.716Z,994.61
2018-03-29T05:55:08.742Z,994.68
2018-03-29T05:56:08.758Z,994.72
2018-03-29T05:57:08.773Z,994.76
2018-03-29T05:58:08.789Z,994.69
2018-03-29T05:59:08.807Z,994.83
2018-03-29T06:00:08.822Z,994.8
2018-03-29T06:01:08.837Z,994.79
2018-03-29T06:02:08.853Z,994.81
2018-03-29T06:03:08.904Z,994.74
2018-03-29T06:04:08.884Z,994.77
2018-03-29T06:05:08.900Z,994.87
2018-03-29T06:06:08.916Z,994.87
2018-03-29T06:07:08.933Z,994.74
2018-03-29T06:08:08.948Z,994.85
2018-03-29T06:09:08.964Z,994.88
2018-03-29T06:11:08.997Z,994.96
2018-03-29T06:12:09.011Z,994.94
2018-03-29T06:13:09.027Z,994.97
2018-03-29T06:14:09.043Z,994.95
2018-03-29T06:15:09.059Z,994.95
2018-03-29T06:16:09.075Z,994.88
2018-03-29T06:17:09.091Z,995
2018-03-29T06:18:09.107Z,994.91
2018-03-29T06:19:09.152Z,995
2018-03-29T06:20:09.142Z,994.89
2018-03-29T06:21:09.155Z,995.01
2018-03-29T06:22:09.171Z,994.98
2018-03-29T06:23:09.191Z,995
2018-03-29T06:24:09.202Z,994.97
2018-03-29T06:25:09.220Z,994.97
2018-03-29T06:27:09.250Z,995.02
2018-03-29T06:28:09.266Z,995.08
2018-03-29T06:29:09.283Z,995.08
2018-03-29T06:30:09.318Z,995.11
2018-03-29T06:31:09.314Z,995.06
2018-03-29T06:32:09.333Z,995.11
2018-03-29T06:33:09.349Z,995.09
2018-03-29T06:34:09.362Z,995.13
2018-03-29T06:35:09.378Z,995.1
2018-03-29T06:36:09.393Z,995.17
2018-03-29T06:37:09.409Z,995.16
2018-03-29T06:38:09.426Z,995.15
2018-03-29T06:39:09.442Z,995.21
2018-03-29T06:40:09.459Z,995.2
2018-03-29T06:41:09.473Z,995.19
2018-03-29T06:43:09.511Z,995.29
2018-03-29T06:44:09.533Z,995.19
2018-03-29T06:45:09.546Z,995.26
2018-03-29T06:46:09.554Z,995.24
2018-03-29T06:47:09.570Z,995.24
2018-03-29T06:48:09.585Z,995.28
2018-03-29T06:49:09.601Z,995.28
2018-03-29T06:50:09.719Z,995.34
2018-03-29T06:51:09.634Z,995.33
2018-03-29T06:52:09.650Z,995.38
2018-03-29T06:53:09.666Z,995.41
2018-03-29T06:54:09.682Z,995.44
2018-03-29T06:55:09.698Z,995.4
2018-03-29T06:56:09.715Z,995.38
2018-03-29T06:58:09.748Z,995.4
2018-03-29T06:59:09.767Z,995.44
2018-03-29T07:00:09.784Z,995.4
2018-03-29T07:01:09.856Z,995.5
2018-03-29T07:02:09.804Z,995.38
2018-03-29T07:03:09.828Z,995.48
2018-03-29T07:04:09.844Z,995.47
2018-03-29T07:05:09.860Z,995.46
2018-03-29T07:06:09.876Z,995.52
2018-03-29T07:07:09.893Z,995.48
2018-03-29T07:08:09.909Z,995.53
2018-03-29T07:09:09.925Z,995.55
2018-03-29T07:10:09.947Z,995.59
2018-03-29T07:11:09.957Z,995.58
2018-03-29T07:12:09.974Z,995.61
2018-03-29T07:13:09.990Z,995.59
2018-03-29T07:14:10.006Z,995.52
2018-03-29T07:15:10.028Z,995.57
2018-03-29T07:16:10.039Z,995.63
2018-03-29T07:17:10.054Z,995.62
2018-03-29T07:18:10.070Z,995.68
2018-03-29T07:19:10.086Z,995.69
2018-03-29T07:20:10.104Z,995.71
2018-03-29T07:21:10.119Z,995.76
2018-03-29T07:22:10.135Z,995.75
2018-03-29T07:23:10.158Z,995.77
2018-03-29T07:24:10.168Z,995.75
2018-03-29T07:25:10.184Z,995.81
2018-03-29T07:26:10.200Z,995.84
2018-03-29T07:27:10.218Z,995.86
2018-03-29T07:28:10.232Z,995.92
2018-03-29T07:30:10.268Z,995.88
2018-03-29T07:31:10.287Z,995.84
2018-03-29T07:32:10.297Z,995.89
2018-03-29T07:33:10.317Z,995.93
2018-03-29T07:34:10.330Z,995.92
2018-03-29T07:35:10.346Z,995.93
2018-03-29T07:36:10.363Z,995.97
2018-03-29T07:37:10.379Z,995.97
2018-03-29T07:38:10.395Z,995.86
2018-03-29T07:39:10.411Z,995.97
2018-03-29T07:40:10.428Z,995.89
2018-03-29T07:41:10.444Z,995.93
2018-03-29T07:42:10.462Z,995.95
2018-03-29T07:43:10.478Z,995.93
2018-03-29T07:44:10.550Z,995.96
2018-03-29T07:46:10.533Z,996.11
2018-03-29T07:47:10.562Z,996.17
2018-03-29T07:48:10.560Z,996.1
2018-03-29T07:49:10.576Z,995.99
2018-03-29T07:50:10.591Z,996.09
2018-03-29T07:51:10.609Z,996.05
2018-03-29T07:52:10.625Z,996.1
2018-03-29T07:53:10.653Z,996.22
2018-03-29T07:54:10.658Z,996.12
2018-03-29T07:55:10.674Z,996.21
2018-03-29T07:56:10.691Z,996.11
2018-03-29T07:57:10.708Z,996.26
2018-03-29T07:58:10.724Z,996.25
2018-03-29T07:59:10.742Z,996.22
2018-03-29T08:00:10.757Z,996.32
2018-03-29T08:02:10.790Z,996.31
2018-03-29T08:03:10.819Z,996.37
2018-03-29T08:04:10.823Z,996.29
2018-03-29T08:05:10.840Z,996.31
2018-03-29T08:06:10.869Z,996.27
2018-03-29T08:07:10.876Z,996.22
2018-03-29T08:08:10.890Z,996.39
2018-03-29T08:09:10.906Z,996.4
2018-03-29T08:10:10.923Z,996.39
2018-03-29T08:11:10.940Z,996.41
2018-03-29T08:12:10.956Z,996.31
2018-03-29T08:13:10.972Z,996.42
2018-03-29T08:14:10.994Z,996.37
2018-03-29T08:15:11.007Z,996.5
2018-03-29T08:16:11.024Z,996.46
2018-03-29T08:18:11.058Z,996.4
2018-03-29T08:19:11.073Z,996.53
2018-03-29T08:20:11.089Z,996.47
2018-03-29T08:21:11.107Z,996.5
2018-03-29T08:22:11.123Z,996.47
2018-03-29T08:23:11.139Z,996.59
2018-03-29T08:24:11.157Z,996.53
2018-03-29T08:25:11.178Z,996.54
2018-03-29T08:26:11.189Z,996.54
2018-03-29T08:27:11.206Z,996.53
2018-03-29T08:28:11.223Z,996.56
2018-03-29T08:29:11.240Z,996.64
2018-03-29T08:30:11.257Z,996.66
2018-03-29T08:31:11.274Z,996.62
2018-03-29T08:33:11.354Z,996.73
2018-03-29T08:34:11.324Z,996.76
2018-03-29T08:35:11.340Z,996.67
2018-03-29T08:36:11.358Z,996.76
2018-03-29T08:37:11.375Z,996.72
2018-03-29T08:38:11.391Z,996.79
2018-03-29T08:39:11.408Z,996.85
2018-03-29T08:40:11.425Z,996.89
2018-03-29T08:41:11.441Z,996.83
2018-03-29T08:42:11.458Z,996.88
2018-03-29T08:43:11.475Z,996.91
2018-03-29T08:44:11.493Z,997.04
2018-03-29T08:45:11.513Z,996.9
2018-03-29T08:46:11.526Z,996.92
2018-03-29T08:47:11.543Z,996.95
2018-03-29T08:48:11.563Z,996.98
2018-03-29T08:49:11.576Z,997.23
2018-03-29T08:50:11.599Z,996.88
2018-03-29T08:51:11.611Z,996.95
2018-03-29T08:52:11.636Z,996.97
2018-03-29T08:53:11.646Z,997.02
2018-03-29T08:54:11.662Z,996.98
2018-03-29T08:55:11.679Z,997.07
2018-03-29T08:56:11.696Z,997.07
2018-03-29T08:57:11.713Z,997.05
2018-03-29T08:58:11.731Z,996.99
2018-03-29T08:59:11.749Z,997.05
2018-03-29T09:00:11.766Z,997.09
2018-03-29T09:01:11.783Z,997.13
2018-03-29T09:02:11.800Z,997.09
2018-03-29T09:03:11.818Z,997.16
2018-03-29T09:05:11.852Z,997.19
2018-03-29T09:06:11.871Z,997.18
2018-03-29T09:07:11.887Z,997.22
2018-03-29T09:08:11.904Z,997.3
2018-03-29T09:09:11.923Z,997.35
2018-03-29T09:10:11.944Z,997.24
2018-03-29T09:11:11.957Z,997.3
2018-03-29T09:12:11.976Z,997.29
2018-03-29T09:13:12.008Z,997.34
2018-03-29T09:14:12.011Z,997.33
2018-03-29T09:15:12.028Z,997.39
2018-03-29T09:16:12.047Z,997.39
2018-03-29T09:17:12.066Z,997.48
2018-03-29T09:18:12.108Z,997.36
2018-03-29T09:19:12.102Z,997.43
2018-03-29T09:21:12.140Z,997.42
2018-03-29T09:22:12.209Z,997.47
2018-03-29T09:23:12.173Z,997.43
2018-03-29T09:24:12.192Z,997.49
2018-03-29T09:25:12.210Z,997.49
2018-03-29T09:26:12.229Z,997.61
2018-03-29T09:27:12.261Z,997.32
2018-03-29T09:28:12.272Z,997.49
2018-03-29T09:29:12.284Z,997.52
2018-03-29T09:30:12.304Z,997.39
2018-03-29T09:31:12.330Z,997.51
2018-03-29T09:32:12.353Z,997.55
2018-03-29T09:33:12.361Z,997.63
2018-03-29T09:34:12.385Z,997.64
2018-03-29T09:35:12.402Z,997.65
2018-03-29T09:37:12.439Z,997.63
2018-03-29T09:38:12.456Z,997.79
2018-03-29T09:39:12.476Z,997.79
2018-03-29T09:40:12.495Z,997.74
2018-03-29T09:41:12.514Z,997.7
2018-03-29T09:42:12.534Z,997.68
2018-03-29T09:43:12.554Z,997.9
2018-03-29T09:44:12.573Z,997.78
2018-03-29T09:45:12.593Z,997.78
2018-03-29T09:46:12.615Z,997.94
2018-03-29T09:47:12.637Z,997.8
2018-03-29T09:48:12.654Z,997.73
2018-03-29T09:49:12.675Z,997.81
2018-03-29T09:50:12.704Z,997.8
2018-03-29T09:51:12.717Z,997.79
2018-03-29T09:53:12.760Z,997.74
2018-03-29T09:54:12.782Z,997.73
2018-03-29T09:55:12.803Z,997.71
2018-03-29T09:56:12.824Z,997.69
2018-03-29T09:57:12.846Z,997.74
2018-03-29T09:58:12.866Z,997.81
2018-03-29T09:59:12.893Z,997.74
2018-03-29T10:00:12.911Z,997.77
2018-03-29T10:01:12.933Z,997.88
2018-03-29T10:02:12.954Z,997.79
2018-03-29T10:03:12.975Z,997.85
2018-03-29T10:04:12.998Z,997.84
2018-03-29T10:05:13.069Z,997.75
2018-03-29T10:06:13.041Z,997.72
2018-03-29T10:08:13.084Z,997.72
2018-03-29T10:09:13.104Z,997.77
2018-03-29T10:10:13.176Z,997.68
2018-03-29T10:11:13.147Z,997.77
2018-03-29T10:12:13.224Z,997.64
2018-03-29T10:13:13.190Z,997.71
2018-03-29T10:14:13.212Z,997.65
2018-03-29T10:15:13.235Z,997.78
2018-03-29T10:16:13.253Z,997.8
2018-03-29T10:17:13.275Z,997.77
2018-03-29T10:18:13.296Z,997.72
2018-03-29T10:19:13.321Z,997.75
2018-03-29T10:20:13.337Z,997.79
2018-03-29T10:21:13.359Z,997.76
2018-03-29T10:22:13.381Z,997.79
2018-03-29T10:23:13.401Z,997.71
2018-03-29T10:24:13.427Z,997.77
2018-03-29T10:25:13.443Z,997.75
2018-03-29T10:26:13.465Z,997.84
2018-03-29T10:27:13.485Z,997.91
2018-03-29T10:28:13.506Z,997.91
2018-03-29T10:29:13.527Z,997.68
2018-03-29T10:30:13.580Z,997.79
2018-03-29T10:31:13.568Z,997.75
2018-03-29T10:32:13.589Z,997.79
2018-03-29T10:33:13.610Z,997.88
2018-03-29T10:34:13.630Z,997.76
2018-03-29T10:35:13.650Z,997.85
2018-03-29T10:36:13.671Z,997.88
2018-03-29T10:37:13.697Z,997.91
2018-03-29T10:38:13.714Z,997.91
2018-03-29T10:40:13.752Z,997.87
2018-03-29T10:41:13.774Z,997.94
2018-03-29T10:42:13.793Z,998.09
2018-03-29T10:43:13.816Z,997.98
2018-03-29T10:44:13.832Z,998.05
2018-03-29T10:45:13.853Z,997.94
2018-03-29T10:46:13.873Z,997.92
2018-03-29T10:47:13.893Z,997.92
2018-03-29T10:48:13.914Z,998.08
2018-03-29T10:49:13.939Z,998.02
2018-03-29T10:50:13.954Z,998.05
2018-03-29T10:51:13.976Z,997.96
2018-03-29T10:52:13.993Z,998.05
2018-03-29T10:53:14.013Z,997.98
2018-03-29T10:54:14.033Z,997.96
2018-03-29T10:56:14.076Z,998.05
2018-03-29T10:57:14.093Z,998
2018-03-29T10:58:14.113Z,998.08
2018-03-29T10:59:14.134Z,998.01
2018-03-29T11:00:14.156Z,998.14
2018-03-29T11:01:14.173Z,998.1
2018-03-29T11:02:14.193Z,998.13
2018-03-29T11:03:14.232Z,998.09
2018-03-29T11:04:14.232Z,998.14
2018-03-29T11:05:14.252Z,998.23
2018-03-29T11:06:14.272Z,998.2
2018-03-29T11:07:14.291Z,998.19
2018-03-29T11:08:14.310Z,998.14
2018-03-29T11:09:14.330Z,998.13
2018-03-29T11:10:14.349Z,998.17
2018-03-29T11:12:14.393Z,998.22
2018-03-29T11:13:14.407Z,998.26
2018-03-29T11:14:14.427Z,998.31
2018-03-29T11:15:14.453Z,998.21
2018-03-29T11:16:14.465Z,998.31
2018-03-29T11:17:14.484Z,998.3
2018-03-29T11:18:14.504Z,998.29
2018-03-29T11:19:14.523Z,998.29
2018-03-29T11:20:14.542Z,998.23
2018-03-29T11:21:14.561Z,998.3
2018-03-29T11:22:14.580Z,998.39
2018-03-29T11:23:14.599Z,998.35
2018-03-29T11:24:14.617Z,998.39
2018-03-29T11:25:14.637Z,998.43
2018-03-29T11:26:14.656Z,998.41
2018-03-29T11:28:14.695Z,998.35
2018-03-29T11:29:14.714Z,998.39
2018-03-29T11:30:14.733Z,998.41
2018-03-29T11:31:14.753Z,998.37
2018-03-29T11:32:14.771Z,998.45
2018-03-29T11:33:14.789Z,998.39
2018-03-29T11:34:14.810Z,998.46
2018-03-29T11:35:14.828Z,998.47
2018-03-29T11:36:14.847Z,998.49
2018-03-29T11:37:14.871Z,998.43
2018-03-29T11:38:14.884Z,998.45
2018-03-29T11:39:14.903Z,998.46
2018-03-29T11:40:14.925Z,998.45
2018-03-29T11:41:14.943Z,998.39
2018-03-29T11:43:14.981Z,998.54
2018-03-29T11:44:14.999Z,998.54
2018-03-29T11:45:15.020Z,998.61
2018-03-29T11:46:15.041Z,998.47
2018-03-29T11:47:15.057Z,998.59
2018-03-29T11:48:15.076Z,998.54
2018-03-29T11:49:15.094Z,998.61
2018-03-29T11:50:15.114Z,998.62
2018-03-29T11:51:15.138Z,998.62
2018-03-29T11:52:15.156Z,998.63
2018-03-29T11:53:15.170Z,998.68
2018-03-29T11:54:15.189Z,998.64
2018-03-29T11:55:15.207Z,998.7
2018-03-29T11:56:15.227Z,998.69
2018-03-29T11:57:15.246Z,998.63
2018-03-29T11:58:15.264Z,998.69
2018-03-29T11:59:15.290Z,998.67
2018-03-29T12:00:15.302Z,998.68
2018-03-29T12:01:15.321Z,998.72
2018-03-29T12:02:15.340Z,998.68
2018-03-29T12:03:15.360Z,998.7
2018-03-29T12:04:15.379Z,998.69
2018-03-29T12:05:15.398Z,998.72
2018-03-29T12:06:15.417Z,998.71
2018-03-29T12:07:15.439Z,998.7
2018-03-29T12:08:15.466Z,998.7
2018-03-29T12:09:15.483Z,998.75
2018-03-29T12:10:15.496Z,998.68
2018-03-29T12:11:15.514Z,998.71
2018-03-29T12:12:15.533Z,998.68
2018-03-29T12:13:15.552Z,998.67
2018-03-29T12:15:15.592Z,998.67
2018-03-29T12:16:15.611Z,998.68
2018-03-29T12:17:15.631Z,998.7
2018-03-29T12:18:15.652Z,998.67
2018-03-29T12:19:15.670Z,998.79
2018-03-29T12:20:15.689Z,998.77
2018-03-29T12:21:15.709Z,998.8
2018-03-29T12:22:15.731Z,998.75
2018-03-29T12:23:15.749Z,998.75
2018-03-29T12:24:15.767Z,998.78
2018-03-29T12:25:15.836Z,998.86
2018-03-29T12:26:15.806Z,998.8
2018-03-29T12:27:15.826Z,998.85
2018-03-29T12:28:15.844Z,998.81
2018-03-29T12:29:15.864Z,998.79
2018-03-29T12:31:16.033Z,998.79
2018-03-29T12:32:15.922Z,998.85
2018-03-29T12:33:15.941Z,998.78
2018-03-29T12:34:15.960Z,998.84
2018-03-29T12:35:15.979Z,998.86
2018-03-29T12:36:15.998Z,998.83
2018-03-29T12:37:16.017Z,998.87
2018-03-29T12:38:16.037Z,998.84
2018-03-29T12:39:16.055Z,998.87
2018-03-29T12:40:16.074Z,998.86
2018-03-29T12:41:16.094Z,998.85
2018-03-29T12:42:16.113Z,998.86
2018-03-29T12:43:16.131Z,998.74
2018-03-29T12:44:16.150Z,998.84
2018-03-29T12:45:16.169Z,998.84
2018-03-29T12:47:16.207Z,998.94
2018-03-29T12:48:16.232Z,998.89
2018-03-29T12:49:16.248Z,998.94
2018-03-29T12:50:16.292Z,999.08
2018-03-29T12:51:16.282Z,998.98
2018-03-29T12:52:16.301Z,998.97
2018-03-29T12:53:16.322Z,999.03
2018-03-29T12:54:16.338Z,998.95
2018-03-29T12:55:16.357Z,999
2018-03-29T12:56:16.376Z,998.95
2018-03-29T12:57:16.394Z,998.92
2018-03-29T12:58:16.413Z,998.96
2018-03-29T12:59:16.432Z,999.06
2018-03-29T13:00:16.498Z,999.01
2018-03-29T13:01:16.473Z,998.99
2018-03-29T13:03:16.508Z,999.01
2018-03-29T13:04:16.529Z,998.97
2018-03-29T13:05:16.545Z,999.02
2018-03-29T13:06:16.570Z,998.99
2018-03-29T13:07:16.584Z,999.07
2018-03-29T13:08:16.602Z,999.05
2018-03-29T13:09:16.621Z,999.02
2018-03-29T13:10:16.640Z,999.01
2018-03-29T13:11:16.660Z,998.96
2018-03-29T13:12:16.680Z,998.96